Foehn-Box 5     Le Cottier - Séez                      
EPHEMERIDE     (heures GMT)
Lever Zenith Coucher
5:17:26 11:26:31 17:34:47

Validation GPS le : 21-9-19 6:18  (GMT)

BATTERIE : 4.56      SOLAIRE : 4.95

SIGNAL : 23.99 ALTITUDE : 1402

FOEHN-BOX 5           Date :  19/09/2021   
Heure Vent
instant
Vent
moyen
Vent
mini
Vent
maxi
Direction
vent
Tempe
-rature
Pression
Humidite
16:45:14 1 4 0 9 7.1 864.7 71.2
16:40:15 0 4 0 9 6.9 864.6 72.1
16:35:13 3 3 0 6 6.9 864.7 70.4
16:30:13 0 0 0 1 7.0 864.7 71.1
16:25:13 1 1 0 3 7.1 864.7 70.3
16:20:14 0 4 0 8 7.1 864.6 71.0
16:15:13 3 5 0 11 7.4 864.7 70.9
16:10:14 1 2 0 4 7.8 864.5 70.9
16:05:13 3 2 0 4 8.4 864.4 70.7
16:00:13 0 2 0 4 8.2 864.3 70.7
15:55:17 0 1 0 3 9.4 864.2 71.3
15:50:13 0 0 0 1 9.1 864.4 71.1
15:45:13 0 1 0 3 8.2 864.4 70.8
15:40:13 1 1 0 3 7.6 864.5 70.4
15:35:13 1 0 0 1 7.7 864.4 70.6
15:30:13 0 1 0 3 7.9 864.4 71.2
15:25:13 0 0 0 1 7.9 864.4 71.4
15:20:13 0 0 0 1 8.0 864.4 71.4
15:15:13 0 1 0 3 8.1 864.3 71.4
15:10:13 0 0 0 1 8.1 864.3 71.1
15:05:30 0 0 0 1 8.3 864.3 71.4
15:00:18 0 0 0 1 8.6 864.4 71.8
14:55:13 0 1 0 3 8.2 864.3 72.1